createdAt,value
2017-11-19T00:00:13.669Z,101670.45
2017-11-19T00:02:41.973Z,101678.03
2017-11-19T00:05:11.058Z,101673.05
2017-11-19T00:07:39.367Z,101674.82
2017-11-19T00:10:08.449Z,101672.01
2017-11-19T00:12:37.550Z,101668.78
2017-11-19T00:15:06.615Z,101672.69
2017-11-19T00:17:34.988Z,101666.80
2017-11-19T00:20:03.322Z,101675.52
2017-11-19T00:22:32.491Z,101675.94
2017-11-19T00:25:00.808Z,101676.17
2017-11-19T00:27:29.141Z,101673.35
2017-11-19T00:29:58.356Z,101670.85
2017-11-19T00:32:27.432Z,101673.17
2017-11-19T00:34:55.728Z,101665.97
2017-11-19T00:37:24.106Z,101665.97
2017-11-19T00:39:52.434Z,101667.79
2017-11-19T00:42:21.552Z,101675.11
2017-11-19T00:44:49.856Z,101670.94
2017-11-19T00:47:18.258Z,101668.38
2017-11-19T00:49:46.571Z,101664.00
2017-11-19T00:52:15.651Z,101681.11
2017-11-19T00:54:44.020Z,101695.66
2017-11-19T00:57:12.341Z,101680.53
2017-11-19T00:59:41.422Z,101683.14
2017-11-19T01:02:10.494Z,101676.93
2017-11-19T01:04:38.815Z,101674.09
2017-11-19T01:07:07.130Z,101669.43
2017-11-19T01:09:35.651Z,101666.70
2017-11-19T01:12:03.984Z,101660.39
2017-11-19T01:14:33.621Z,101665.05
2017-11-19T01:17:01.908Z,101669.30
2017-11-19T01:19:30.190Z,101659.47
2017-11-19T01:21:58.482Z,101657.50
2017-11-19T01:24:26.856Z,101660.58
2017-11-19T01:26:55.142Z,101667.14
2017-11-19T01:29:23.538Z,101657.42
2017-11-19T01:31:52.732Z,101655.34
2017-11-19T01:34:21.058Z,101654.25
2017-11-19T01:36:49.356Z,101653.67
2017-11-19T01:39:17.659Z,101649.88
2017-11-19T01:41:45.978Z,101654.99
2017-11-19T01:44:15.038Z,101655.67
2017-11-19T01:46:43.445Z,101655.52
2017-11-19T01:49:11.759Z,101661.24
2017-11-19T01:51:40.357Z,101657.75
2017-11-19T01:54:09.518Z,101652.02
2017-11-19T01:56:37.833Z,101651.53
2017-11-19T01:59:06.892Z,101651.97
2017-11-19T02:01:35.181Z,101656.78
2017-11-19T02:04:03.542Z,101651.57
2017-11-19T02:06:31.859Z,101655.62
2017-11-19T02:09:00.217Z,101656.64
2017-11-19T02:11:28.517Z,101663.80
2017-11-19T02:13:58.333Z,101657.83
2017-11-19T02:16:28.753Z,101661.55
2017-11-19T02:18:57.075Z,101674.63
2017-11-19T02:21:26.139Z,101667.42
2017-11-19T02:23:54.509Z,101664.03
2017-11-19T02:26:22.828Z,101667.17
2017-11-19T02:28:51.114Z,101655.88
2017-11-19T02:31:21.044Z,101664.29
2017-11-19T02:33:50.129Z,101658.38
2017-11-19T02:36:19.198Z,101660.65
2017-11-19T02:38:47.532Z,101670.80
2017-11-19T02:41:15.847Z,101671.62
2017-11-19T02:43:44.298Z,101685.02
2017-11-19T02:46:12.590Z,101672.92
2017-11-19T02:48:40.906Z,101691.05
2017-11-19T02:51:09.218Z,101686.41
2017-11-19T02:53:37.529Z,101667.84
2017-11-19T02:56:05.819Z,101663.50
2017-11-19T02:58:34.129Z,101660.48
2017-11-19T03:01:02.440Z,101670.34
2017-11-19T03:03:30.749Z,101664.96
2017-11-19T03:05:59.066Z,101665.11
2017-11-19T03:08:27.632Z,101663.78
2017-11-19T03:10:55.956Z,101659.17
2017-11-19T03:13:24.259Z,101659.98
2017-11-19T03:15:52.609Z,101661.35
2017-11-19T03:18:20.915Z,101662.45
2017-11-19T03:20:49.220Z,101669.27
2017-11-19T03:23:18.301Z,101671.43
2017-11-19T03:25:46.666Z,101685.49
2017-11-19T03:28:14.980Z,101687.95
2017-11-19T03:30:43.323Z,101677.40
2017-11-19T03:33:11.630Z,101675.08
2017-11-19T03:35:39.952Z,101668.19
2017-11-19T03:38:08.252Z,101663.63
2017-11-19T03:40:36.695Z,101668.19
2017-11-19T03:43:05.778Z,101670.34
2017-11-19T03:45:34.083Z,101676.23
2017-11-19T03:48:02.390Z,101674.59
2017-11-19T03:50:30.701Z,101666.41
2017-11-19T03:52:59.006Z,101672.79
2017-11-19T03:55:28.056Z,101672.14
2017-11-19T03:57:56.455Z,101661.00
2017-11-19T04:00:24.782Z,101671.75
2017-11-19T04:02:53.103Z,101670.34
2017-11-19T04:05:21.414Z,101674.72
2017-11-19T04:07:49.732Z,101672.48
2017-11-19T04:10:18.822Z,101675.13
2017-11-19T04:12:47.921Z,101674.15
2017-11-19T04:15:16.993Z,101671.91
2017-11-19T04:17:45.317Z,101661.31
2017-11-19T04:20:13.640Z,101672.72
2017-11-19T04:22:41.968Z,101679.20
2017-11-19T04:25:11.130Z,101670.03
2017-11-19T04:27:39.426Z,101671.05
2017-11-19T04:30:08.534Z,101672.52
2017-11-19T04:32:36.844Z,101665.30
2017-11-19T04:35:05.150Z,101677.59
2017-11-19T04:37:33.449Z,101682.86
2017-11-19T04:40:01.760Z,101674.98
2017-11-19T04:42:30.864Z,101667.67
2017-11-19T04:45:00.034Z,101688.82
2017-11-19T04:47:28.489Z,101676.61
2017-11-19T04:49:56.787Z,101677.75
2017-11-19T04:52:25.899Z,101670.36
2017-11-19T04:54:54.208Z,101677.00
2017-11-19T04:57:23.444Z,101674.86
2017-11-19T04:59:51.753Z,101680.18
2017-11-19T05:02:20.647Z,101683.53
2017-11-19T05:04:48.952Z,101684.02
2017-11-19T05:07:17.284Z,101682.45
2017-11-19T05:09:45.594Z,101683.78
2017-11-19T05:12:13.892Z,101679.64
2017-11-19T05:14:42.189Z,101684.46
2017-11-19T05:17:12.219Z,101683.88
2017-11-19T05:19:41.276Z,101688.47
2017-11-19T05:22:09.577Z,101692.71
2017-11-19T05:24:37.881Z,101696.46
2017-11-19T05:27:06.949Z,101699.72
2017-11-19T05:29:35.330Z,101702.62
2017-11-19T05:32:03.627Z,101707.95
2017-11-19T05:34:31.997Z,101702.30
2017-11-19T05:37:00.390Z,101704.85
2017-11-19T05:39:28.701Z,101711.31
2017-11-19T05:41:57.776Z,101707.98
2017-11-19T05:44:27.742Z,101713.38
2017-11-19T05:46:56.051Z,101712.46
2017-11-19T05:49:24.447Z,101709.38
2017-11-19T05:51:52.748Z,101708.11
2017-11-19T05:54:21.095Z,101703.23
2017-11-19T05:56:49.394Z,101703.41
2017-11-19T05:59:17.790Z,101715.59
2017-11-19T06:01:47.602Z,101730.47
2017-11-19T06:04:16.668Z,101713.12
2017-11-19T06:06:44.988Z,101711.52
2017-11-19T06:09:13.285Z,101730.00
2017-11-19T06:11:42.361Z,101711.11
2017-11-19T06:14:10.670Z,101722.13
2017-11-19T06:16:39.753Z,101718.72
2017-11-19T06:19:08.049Z,101709.34
2017-11-19T06:21:37.178Z,101721.37
2017-11-19T06:24:05.485Z,101721.56
2017-11-19T06:26:33.788Z,101730.78
2017-11-19T06:29:02.885Z,101730.11
2017-11-19T06:31:32.779Z,101726.05
2017-11-19T06:34:01.112Z,101728.02
2017-11-19T06:36:30.296Z,101725.73
2017-11-19T06:38:58.589Z,101730.49
2017-11-19T06:41:27.691Z,101728.09
2017-11-19T06:43:56.765Z,101734.63
2017-11-19T06:46:25.113Z,101729.50
2017-11-19T06:48:53.426Z,101733.80
2017-11-19T06:51:21.930Z,101736.59
2017-11-19T06:53:50.255Z,101745.66
2017-11-19T06:56:18.557Z,101746.83
2017-11-19T06:58:46.863Z,101755.73
2017-11-19T07:01:15.200Z,101747.93
2017-11-19T07:03:43.526Z,101752.54
2017-11-19T07:06:13.444Z,101752.78
2017-11-19T07:08:41.756Z,101753.54
2017-11-19T07:11:10.910Z,101761.72
2017-11-19T07:13:39.229Z,101765.79
2017-11-19T07:16:08.290Z,101802.05
2017-11-19T07:18:36.616Z,101777.86
2017-11-19T07:21:05.954Z,101777.36
2017-11-19T07:23:34.378Z,101786.05
2017-11-19T07:26:02.714Z,101786.78
2017-11-19T07:28:31.035Z,101795.27
2017-11-19T07:30:59.326Z,101785.31
2017-11-19T07:33:27.719Z,101785.23
2017-11-19T07:35:56.021Z,101778.39
2017-11-19T07:38:25.103Z,101789.37
2017-11-19T07:40:53.419Z,101801.75
2017-11-19T07:43:21.717Z,101793.28
2017-11-19T07:45:50.045Z,101790.30
2017-11-19T07:48:18.569Z,101798.80
2017-11-19T07:50:47.676Z,101798.48
2017-11-19T07:53:15.987Z,101800.30
2017-11-19T07:55:44.312Z,101801.39
2017-11-19T07:58:13.460Z,101790.61
2017-11-19T08:00:41.784Z,101797.76
2017-11-19T08:03:10.852Z,101806.91
2017-11-19T08:05:39.301Z,101807.34
2017-11-19T08:08:07.612Z,101814.92
2017-11-19T08:10:35.925Z,101808.52
2017-11-19T08:13:04.226Z,101814.27
2017-11-19T08:15:33.386Z,101812.74
2017-11-19T08:18:02.477Z,101816.57
2017-11-19T08:20:30.794Z,101820.33
2017-11-19T08:22:59.953Z,101817.76
2017-11-19T08:25:28.287Z,101817.44
2017-11-19T08:27:57.340Z,101816.02
2017-11-19T08:30:25.636Z,101812.36
2017-11-19T08:32:55.441Z,101814.25
2017-11-19T08:35:23.779Z,101818.91
2017-11-19T08:37:52.311Z,101831.30
2017-11-19T08:40:20.616Z,101832.97
2017-11-19T08:42:48.925Z,101831.22
2017-11-19T08:45:17.241Z,101826.80
2017-11-19T08:47:45.643Z,101844.61
2017-11-19T08:50:15.587Z,101846.70
2017-11-19T08:52:44.646Z,101841.59
2017-11-19T08:55:12.982Z,101850.44
2017-11-19T08:57:42.140Z,101850.10
2017-11-19T09:00:10.458Z,101843.44
2017-11-19T09:02:39.518Z,101848.02
2017-11-19T09:05:07.863Z,101844.35
2017-11-19T09:07:36.193Z,101843.48
2017-11-19T09:10:05.277Z,101845.60
2017-11-19T09:12:33.613Z,101857.06
2017-11-19T09:15:01.913Z,101858.45
2017-11-19T09:17:30.220Z,101849.81
2017-11-19T09:19:58.549Z,101866.02
2017-11-19T09:22:27.716Z,101860.80
2017-11-19T09:24:56.035Z,101892.48
2017-11-19T09:29:52.711Z,101898.45
2017-11-19T09:32:21.115Z,101908.91
2017-11-19T09:34:49.428Z,101902.20
2017-11-19T09:37:17.870Z,101900.31
2017-11-19T09:39:46.386Z,101895.34
2017-11-19T09:42:14.701Z,101897.15
2017-11-19T09:44:42.997Z,101901.18
2017-11-19T09:47:12.115Z,101897.84
2017-11-19T09:49:40.440Z,101896.58
2017-11-19T09:52:08.760Z,101891.25
2017-11-19T09:54:37.811Z,101893.90
2017-11-19T09:57:06.273Z,101895.16
2017-11-19T09:59:34.585Z,101902.14
2017-11-19T10:02:02.898Z,101899.89
2017-11-19T10:04:31.965Z,101892.48
2017-11-19T10:07:00.286Z,101899.03
2017-11-19T10:09:29.378Z,101895.86
2017-11-19T10:11:58.455Z,101904.08
2017-11-19T10:14:26.834Z,101912.00
2017-11-19T10:16:55.142Z,101906.33
2017-11-19T10:19:24.241Z,101899.99
2017-11-19T10:21:53.373Z,101910.63
2017-11-19T10:24:21.690Z,101902.53
2017-11-19T10:26:49.988Z,101917.71
2017-11-19T10:29:18.291Z,101904.45
2017-11-19T10:31:48.071Z,101910.41
2017-11-19T10:34:16.391Z,101911.77
2017-11-19T10:36:45.490Z,101897.61
2017-11-19T10:39:14.693Z,101904.13
2017-11-19T10:41:43.760Z,101901.30
2017-11-19T10:44:12.132Z,101899.80
2017-11-19T10:46:40.508Z,101903.56
2017-11-19T10:49:08.896Z,101900.97
2017-11-19T10:51:37.212Z,101913.72
2017-11-19T10:54:06.275Z,101910.23
2017-11-19T10:56:34.589Z,101917.66
2017-11-19T10:59:02.952Z,101917.55
2017-11-19T11:01:31.289Z,101907.65
2017-11-19T11:03:59.600Z,101914.97
2017-11-19T11:06:28.683Z,101930.44
2017-11-19T11:08:57.020Z,101930.50
2017-11-19T11:11:26.257Z,101930.45
2017-11-19T11:13:54.573Z,101936.12
2017-11-19T11:16:22.885Z,101928.24
2017-11-19T11:18:51.951Z,101928.83
2017-11-19T11:21:20.302Z,101922.77
2017-11-19T11:23:48.614Z,101926.97
2017-11-19T11:26:16.954Z,101935.39
2017-11-19T11:28:45.321Z,101937.56
2017-11-19T11:31:14.387Z,101944.27
2017-11-19T11:33:43.295Z,101945.49
2017-11-19T11:36:12.397Z,101956.70
2017-11-19T11:38:40.736Z,101950.42
2017-11-19T11:41:09.031Z,101949.95
2017-11-19T11:43:37.339Z,101946.44
2017-11-19T11:46:05.657Z,101961.03
2017-11-19T11:48:33.990Z,101943.66
2017-11-19T11:51:02.366Z,101953.49
2017-11-19T11:53:30.748Z,101956.66
2017-11-19T11:55:59.049Z,101953.36
2017-11-19T11:58:27.353Z,101960.44
2017-11-19T12:00:56.452Z,101949.75
2017-11-19T12:03:25.549Z,101953.72
2017-11-19T12:05:54.691Z,101967.91
2017-11-19T12:08:23.080Z,101956.77
2017-11-19T12:10:51.422Z,101952.83
2017-11-19T12:13:19.785Z,101954.53
2017-11-19T12:15:48.107Z,101949.78
2017-11-19T12:18:16.439Z,101957.22
2017-11-19T12:20:44.759Z,101960.41
2017-11-19T12:23:13.103Z,101981.30
2017-11-19T12:25:41.429Z,101981.51
2017-11-19T12:28:09.780Z,101971.83
2017-11-19T12:30:38.863Z,101975.16
2017-11-19T12:33:07.172Z,101973.63
2017-11-19T12:35:35.514Z,101975.38
2017-11-19T12:38:03.820Z,101981.12
2017-11-19T12:40:32.926Z,101977.05
2017-11-19T12:43:02.106Z,101977.81
2017-11-19T12:45:30.419Z,101974.80
2017-11-19T12:47:59.588Z,101969.10
2017-11-19T12:50:29.459Z,101961.23
2017-11-19T12:52:57.772Z,101956.11
2017-11-19T12:55:26.112Z,101962.19
2017-11-19T12:57:55.248Z,101959.98
2017-11-19T13:00:23.569Z,101967.73
2017-11-19T13:02:52.650Z,101966.86
2017-11-19T13:05:20.946Z,101969.73
2017-11-19T13:07:49.253Z,101965.05
2017-11-19T13:10:18.339Z,101965.33
2017-11-19T13:12:47.612Z,101965.05
2017-11-19T13:15:17.463Z,101959.81
2017-11-19T13:17:46.541Z,101960.66
2017-11-19T13:20:14.915Z,101957.31
2017-11-19T13:22:43.218Z,101964.31
2017-11-19T13:25:12.328Z,101974.50
2017-11-19T13:27:41.388Z,101983.05
2017-11-19T13:30:09.719Z,101972.31
2017-11-19T13:32:38.035Z,101980.39
2017-11-19T13:35:06.396Z,101978.77
2017-11-19T13:37:35.630Z,101985.20
2017-11-19T13:40:03.933Z,101978.08
2017-11-19T13:42:32.246Z,101979.31
2017-11-19T13:45:00.570Z,101987.19
2017-11-19T13:47:28.888Z,101986.59
2017-11-19T13:49:58.003Z,101978.70
2017-11-19T13:52:27.107Z,101975.94
2017-11-19T13:54:56.186Z,101987.38
2017-11-19T13:57:25.379Z,101991.62
2017-11-19T13:59:53.700Z,101990.88
2017-11-19T14:02:22.028Z,101990.63
2017-11-19T14:04:50.416Z,102001.14
2017-11-19T14:07:18.721Z,101997.88
2017-11-19T14:09:47.818Z,101998.41
2017-11-19T14:12:16.148Z,101996.15
2017-11-19T14:14:44.453Z,102002.66
2017-11-19T14:17:12.847Z,102001.72
2017-11-19T14:19:41.182Z,102018.91
2017-11-19T14:22:09.494Z,102019.69
2017-11-19T14:24:37.807Z,102022.50
2017-11-19T14:27:06.978Z,102023.34
2017-11-19T14:29:35.290Z,102027.47
2017-11-19T14:32:03.611Z,102022.41
2017-11-19T14:34:31.941Z,102028.83
2017-11-19T14:37:00.249Z,102015.34
2017-11-19T14:39:29.346Z,102016.68
2017-11-19T14:41:57.731Z,102016.29
2017-11-19T14:44:26.895Z,102018.36
2017-11-19T14:46:55.288Z,102018.22
2017-11-19T14:49:24.259Z,102017.88
2017-11-19T14:51:52.582Z,102018.20
2017-11-19T14:54:20.901Z,102039.20
2017-11-19T14:56:49.205Z,102037.73
2017-11-19T14:59:18.558Z,102033.48
2017-11-19T15:01:47.690Z,102031.98
2017-11-19T15:04:15.978Z,102035.65
2017-11-19T15:06:44.281Z,102026.73
2017-11-19T15:09:12.680Z,102029.66
2017-11-19T15:11:41.843Z,102031.13
2017-11-19T15:14:10.162Z,102029.87
2017-11-19T15:16:39.253Z,102030.23
2017-11-19T15:19:07.580Z,102028.14
2017-11-19T15:21:35.896Z,102038.56
2017-11-19T15:24:04.192Z,102037.63
2017-11-19T15:26:32.532Z,102042.38
2017-11-19T15:29:00.839Z,102042.70
2017-11-19T15:31:29.144Z,102051.15
2017-11-19T15:33:57.534Z,102047.05
2017-11-19T15:36:27.372Z,102060.63
2017-11-19T15:38:56.531Z,102071.28
2017-11-19T15:41:24.834Z,102068.14
2017-11-19T15:43:53.914Z,102073.30
2017-11-19T15:46:22.234Z,102071.91
2017-11-19T15:48:51.345Z,102061.98
2017-11-19T15:51:20.418Z,102063.18
2017-11-19T15:53:48.750Z,102069.17
2017-11-19T15:56:17.185Z,102065.51
2017-11-19T15:58:45.513Z,102068.81
2017-11-19T16:01:13.815Z,102067.90
2017-11-19T16:03:42.119Z,102076.48
2017-11-19T16:06:11.299Z,102079.06
2017-11-19T16:08:39.661Z,102077.29
2017-11-19T16:11:07.949Z,102077.72
2017-11-19T16:13:37.076Z,102070.20
2017-11-19T16:16:05.413Z,102083.19
2017-11-19T16:18:33.730Z,102096.20
2017-11-19T16:21:02.020Z,102078.81
2017-11-19T16:23:30.328Z,102075.31
2017-11-19T16:25:58.654Z,102075.47
2017-11-19T16:28:26.982Z,102083.95
2017-11-19T16:30:56.050Z,102078.86
2017-11-19T16:33:24.353Z,102082.42
2017-11-19T16:35:52.658Z,102073.91
2017-11-19T16:38:20.975Z,102084.47
2017-11-19T16:40:49.299Z,102090.48
2017-11-19T16:43:18.368Z,102084.39
2017-11-19T16:45:46.662Z,102086.22
2017-11-19T16:48:14.981Z,102092.73
2017-11-19T16:50:43.278Z,102105.47
2017-11-19T16:53:12.357Z,102124.81
2017-11-19T16:55:40.683Z,102128.95
2017-11-19T16:58:09.205Z,102134.02
2017-11-19T17:00:37.599Z,102109.33
2017-11-19T17:03:06.771Z,102104.31
2017-11-19T17:05:35.087Z,102095.42
2017-11-19T17:08:04.151Z,102097.39
2017-11-19T17:10:32.446Z,102097.62
2017-11-19T17:13:00.784Z,102101.49
2017-11-19T17:15:29.102Z,102106.36
2017-11-19T17:17:57.430Z,102106.54
2017-11-19T17:20:26.500Z,102114.68
2017-11-19T17:22:55.534Z,102121.86
2017-11-19T17:25:24.605Z,102121.56
2017-11-19T17:27:52.902Z,102127.00
2017-11-19T17:30:22.048Z,102117.19
2017-11-19T17:32:50.561Z,102122.09
2017-11-19T17:35:18.911Z,102113.36
2017-11-19T17:37:47.899Z,102120.42
2017-11-19T17:40:16.229Z,102126.50
2017-11-19T17:42:44.548Z,102124.92
2017-11-19T17:45:12.859Z,102125.94
2017-11-19T17:47:41.157Z,102127.12
2017-11-19T17:50:09.474Z,102130.05
2017-11-19T17:52:37.789Z,102126.97
2017-11-19T17:55:06.129Z,102129.14
2017-11-19T17:57:35.249Z,102130.55
2017-11-19T18:00:04.346Z,102133.05
2017-11-19T18:02:33.476Z,102131.03
2017-11-19T18:05:01.847Z,102136.81
2017-11-19T18:07:30.168Z,102137.66
2017-11-19T18:09:58.496Z,102139.67
2017-11-19T18:12:27.580Z,102131.84
2017-11-19T18:14:55.894Z,102142.72
2017-11-19T18:17:24.213Z,102151.46
2017-11-19T18:19:52.560Z,102148.91
2017-11-19T18:22:20.882Z,102153.93
2017-11-19T18:24:49.205Z,102157.77
2017-11-19T18:27:18.277Z,102155.19
2017-11-19T18:29:47.422Z,102151.27
2017-11-19T18:32:15.725Z,102155.86
2017-11-19T18:34:44.043Z,102155.44
2017-11-19T18:37:12.374Z,102169.28
2017-11-19T18:39:40.670Z,102160.57
2017-11-19T18:42:09.006Z,102165.33
2017-11-19T18:44:38.094Z,102156.34
2017-11-19T18:47:06.409Z,102159.58
2017-11-19T18:49:34.710Z,102154.67
2017-11-19T18:52:03.008Z,102156.79
2017-11-19T18:54:32.069Z,102161.65
2017-11-19T18:57:00.373Z,102164.58
2017-11-19T18:59:29.691Z,102163.89
2017-11-19T19:01:57.997Z,102167.02
2017-11-19T19:04:27.063Z,102171.11
2017-11-19T19:06:55.381Z,102160.97
2017-11-19T19:09:23.779Z,102159.83
2017-11-19T19:11:52.858Z,102168.42
2017-11-19T19:14:21.179Z,102166.25
2017-11-19T19:16:49.487Z,102179.97
2017-11-19T19:19:17.807Z,102177.09
2017-11-19T19:21:46.112Z,102182.98
2017-11-19T19:24:15.175Z,102176.93
2017-11-19T19:26:43.483Z,102170.00
2017-11-19T19:29:12.678Z,102168.29
2017-11-19T19:31:40.980Z,102173.08
2017-11-19T19:34:10.045Z,102176.64
2017-11-19T19:36:38.344Z,102182.27
2017-11-19T19:39:07.444Z,102188.42
2017-11-19T19:41:36.532Z,102197.31
2017-11-19T19:44:04.841Z,102195.56
2017-11-19T19:46:33.926Z,102205.09
2017-11-19T19:49:03.000Z,102197.77
2017-11-19T19:51:31.302Z,102204.78
2017-11-19T19:54:00.374Z,102203.86
2017-11-19T19:56:28.688Z,102202.41
2017-11-19T19:58:57.753Z,102209.13
2017-11-19T20:01:26.164Z,102207.80
2017-11-19T20:03:55.300Z,102217.88
2017-11-19T20:06:23.599Z,102214.45
2017-11-19T20:08:51.902Z,102225.70
2017-11-19T20:11:20.189Z,102222.67
2017-11-19T20:13:48.520Z,102223.53
2017-11-19T20:16:16.807Z,102223.58
2017-11-19T20:18:45.125Z,102223.13
2017-11-19T20:21:13.425Z,102224.81
2017-11-19T20:23:41.905Z,102227.25
2017-11-19T20:26:10.215Z,102225.42
2017-11-19T20:28:38.536Z,102240.26
2017-11-19T20:31:06.853Z,102234.71
2017-11-19T20:33:35.994Z,102236.81
2017-11-19T20:36:04.285Z,102232.98
2017-11-19T20:38:32.599Z,102230.52
2017-11-19T20:41:00.945Z,102240.37
2017-11-19T20:43:29.248Z,102244.48
2017-11-19T20:45:57.553Z,102236.39
2017-11-19T20:48:25.852Z,102239.47
2017-11-19T20:50:54.158Z,102238.83
2017-11-19T20:53:22.470Z,102236.02
2017-11-19T20:55:50.765Z,102238.87
2017-11-19T20:58:19.356Z,102244.38
2017-11-19T21:00:47.661Z,102252.91
2017-11-19T21:03:15.965Z,102249.48
2017-11-19T21:05:45.024Z,102246.59
2017-11-19T21:08:14.189Z,102245.53
2017-11-19T21:10:42.530Z,102239.37
2017-11-19T21:13:11.600Z,102237.69
2017-11-19T21:15:39.908Z,102238.83
2017-11-19T21:18:08.204Z,102242.91
2017-11-19T21:20:37.270Z,102248.23
2017-11-19T21:23:05.611Z,102239.06
2017-11-19T21:25:33.953Z,102236.32
2017-11-19T21:28:02.596Z,102237.50
2017-11-19T21:30:30.901Z,102233.43
2017-11-19T21:32:59.211Z,102240.70
2017-11-19T21:35:28.289Z,102235.30
2017-11-19T21:37:56.596Z,102238.72
2017-11-19T21:40:25.662Z,102246.22
2017-11-19T21:42:53.952Z,102239.90
2017-11-19T21:45:22.292Z,102230.91
2017-11-19T21:47:50.581Z,102227.61
2017-11-19T21:50:18.939Z,102229.67
2017-11-19T21:52:47.259Z,102230.77
2017-11-19T21:55:15.567Z,102235.45
2017-11-19T21:57:43.895Z,102237.95
2017-11-19T22:00:12.355Z,102234.03
2017-11-19T22:02:41.442Z,102231.79
2017-11-19T22:05:10.524Z,102227.30
2017-11-19T22:07:38.832Z,102227.14
2017-11-19T22:10:07.915Z,102226.58
2017-11-19T22:12:36.234Z,102219.42
2017-11-19T22:15:04.536Z,102226.99
2017-11-19T22:17:32.861Z,102222.92
2017-11-19T22:20:01.200Z,102222.50
2017-11-19T22:22:29.518Z,102212.34
2017-11-19T22:24:57.851Z,102220.75
2017-11-19T22:27:26.149Z,102212.19
2017-11-19T22:29:54.468Z,102216.41
2017-11-19T22:32:22.781Z,102209.94
2017-11-19T22:34:51.133Z,102214.28
2017-11-19T22:37:19.442Z,102207.95
2017-11-19T22:39:48.539Z,102210.31
2017-11-19T22:42:17.619Z,102206.47
2017-11-19T22:44:45.941Z,102206.66
2017-11-19T22:47:14.292Z,102204.48
2017-11-19T22:49:43.389Z,102200.49
2017-11-19T22:52:12.484Z,102202.16
2017-11-19T22:54:40.795Z,102204.75
2017-11-19T22:57:09.130Z,102207.26
2017-11-19T22:59:37.448Z,102203.27
2017-11-19T23:02:05.785Z,102201.67
2017-11-19T23:04:34.086Z,102198.43
2017-11-19T23:07:03.001Z,102203.19
2017-11-19T23:09:32.067Z,102201.02
2017-11-19T23:12:00.386Z,102199.50
2017-11-19T23:14:29.481Z,102192.34
2017-11-19T23:16:58.546Z,102188.69
2017-11-19T23:19:26.854Z,102192.27
2017-11-19T23:21:55.934Z,102188.61
2017-11-19T23:24:24.238Z,102179.44
2017-11-19T23:26:53.318Z,102189.59
2017-11-19T23:29:21.628Z,102197.67
2017-11-19T23:31:50.704Z,102199.84
2017-11-19T23:34:19.010Z,102199.84
2017-11-19T23:36:47.325Z,102201.25
2017-11-19T23:39:15.633Z,102200.02
2017-11-19T23:41:43.984Z,102207.26
2017-11-19T23:44:12.296Z,102210.84
2017-11-19T23:46:40.623Z,102213.00
2017-11-19T23:49:08.923Z,102212.59
2017-11-19T23:51:37.217Z,102211.25
2017-11-19T23:54:05.551Z,102212.51
2017-11-19T23:56:34.618Z,102212.59
2017-11-19T23:59:02.921Z,102208.17
